Time;durP1;ratioP1;P1;durP2;ratioP2;P2;SDS_P1;SDS_P2;PMS_P1;PMS_P2;Temp;Humidity;BMP_temperature;BMP_pressure;BME280_temperature;BME280_humidity;BME280_pressure;Samples;Min_cycle;Max_cycle;Signal;HPM_P1;HPM_P2
2022/06/09 00:01:16;;;;;;;13.23;6.40;;;;;;;;;;4905753;29;20135;-76
2022/06/09 00:07:21;;;;;;;8.88;7.35;;;;;;;;;;4919185;29;20042;-76
2022/06/09 00:09:53;;;;;;;9.65;7.25;;;;;;;;;;4902629;29;20170;-76
2022/06/09 00:12:20;;;;;;;10.05;7.75;;;;;;;;;;4909308;29;20052;-77
2022/06/09 00:14:48;;;;;;;10.65;7.75;;;;;;;;;;4924410;29;20389;-77
2022/06/09 00:17:15;;;;;;;10.80;8.00;;;;;;;;;;4922204;29;20142;-77
2022/06/09 00:19:42;;;;;;;16.05;8.10;;;;;;;;;;4910064;29;20174;-76
2022/06/09 00:22:10;;;;;;;11.38;8.25;;;;;;;;;;4906498;29;20350;-77
2022/06/09 00:24:37;;;;;;;10.50;7.38;;;;;;;;;;4909579;29;20750;-76
2022/06/09 00:27:05;;;;;;;12.75;7.72;;;;;;;;;;4925759;29;20094;-77
2022/06/09 00:29:32;;;;;;;12.35;7.95;;;;;;;;;;4909842;29;20639;-77
2022/06/09 00:31:59;;;;;;;10.82;7.78;;;;;;;;;;4926771;29;20456;-77
2022/06/09 00:34:26;;;;;;;10.48;7.05;;;;;;;;;;4923843;29;20065;-77
2022/06/09 00:36:54;;;;;;;19.27;8.95;;;;;;;;;;4900093;29;20072;-77
2022/06/09 00:39:21;;;;;;;12.13;8.05;;;;;;;;;;4923027;29;20147;-77
2022/06/09 00:41:48;;;;;;;12.25;8.25;;;;;;;;;;4922357;29;20151;-77
2022/06/09 00:44:21;;;;;;;13.23;8.63;;;;;;;;;;4919274;29;20155;-77
2022/06/09 00:46:55;;;;;;;14.65;8.80;;;;;;;;;;4902663;29;20079;-77
2022/06/09 00:49:25;;;;;;;10.80;7.93;;;;;;;;;;4920290;29;20142;-77
2022/06/09 00:51:59;;;;;;;13.63;7.53;;;;;;;;;;4918520;29;20051;-77
2022/06/09 00:54:32;;;;;;;11.77;8.65;;;;;;;;;;4905831;29;20047;-76
2022/06/09 00:57:04;;;;;;;13.30;8.90;;;;;;;;;;4921251;29;20147;-77
2022/06/09 00:59:33;;;;;;;13.43;8.60;;;;;;;;;;4920941;29;21912;-77
2022/06/09 01:02:01;;;;;;;33.35;9.88;;;;;;;;;;4921432;29;20143;-77
2022/06/09 01:04:30;;;;;;;13.65;9.45;;;;;;;;;;4911152;29;20083;-77
2022/06/09 01:06:58;;;;;;;12.98;9.57;;;;;;;;;;4906628;29;20807;-77
2022/06/09 01:09:27;;;;;;;18.05;10.32;;;;;;;;;;4922497;29;20167;-77
2022/06/09 01:11:55;;;;;;;16.25;10.13;;;;;;;;;;4921739;29;20071;-77
2022/06/09 01:14:25;;;;;;;14.05;9.52;;;;;;;;;;4924502;29;20092;-77
2022/06/09 01:17:05;;;;;;;16.63;9.70;;;;;;;;;;4903493;29;20058;-77
2022/06/09 01:19:32;;;;;;;12.20;9.52;;;;;;;;;;4923697;29;20099;-77
2022/06/09 01:22:18;;;;;;;16.40;10.32;;;;;;;;;;4903059;29;20876;-77
2022/06/09 01:24:49;;;;;;;14.50;10.68;;;;;;;;;;4904561;29;20875;-76
2022/06/09 01:27:35;;;;;;;19.30;11.77;;;;;;;;;;4924072;29;20086;-76
2022/06/09 01:30:06;;;;;;;14.43;11.27;;;;;;;;;;4917005;29;20158;-76
2022/06/09 01:32:35;;;;;;;15.65;11.27;;;;;;;;;;4924331;29;20820;-76
2022/06/09 01:35:29;;;;;;;19.60;11.70;;;;;;;;;;4924460;29;20639;-76
2022/06/09 01:37:57;;;;;;;18.88;13.02;;;;;;;;;;4918974;29;20051;-76
2022/06/09 01:40:25;;;;;;;18.05;11.68;;;;;;;;;;4905623;29;20146;-76
2022/06/09 01:42:54;;;;;;;17.23;11.82;;;;;;;;;;4904650;29;20118;-76
2022/06/09 01:45:24;;;;;;;19.05;13.00;;;;;;;;;;4925544;29;20048;-76
2022/06/09 01:48:03;;;;;;;18.65;12.82;;;;;;;;;;4920691;29;21434;-76
2022/06/09 01:50:49;;;;;;;16.20;11.73;;;;;;;;;;4919589;29;20199;-77
2022/06/09 01:53:16;;;;;;;;;;;;;;;;;;4924485;29;20142;-76
2022/06/09 01:55:49;;;;;;;14.40;10.15;;;;;;;;;;4926527;29;19954;-77
2022/06/09 01:58:18;;;;;;;12.48;9.00;;;;;;;;;;4919479;29;20066;-77
2022/06/09 02:00:46;;;;;;;12.60;9.18;;;;;;;;;;4927569;29;20058;-76
2022/06/09 02:03:16;;;;;;;13.15;9.98;;;;;;;;;;4907741;29;20398;-76
2022/06/09 02:05:46;;;;;;;11.80;8.65;;;;;;;;;;4919821;29;20052;-76
2022/06/09 02:08:15;;;;;;;13.23;9.88;;;;;;;;;;4921546;29;20489;-76
2022/06/09 02:10:45;;;;;;;15.88;10.15;;;;;;;;;;4901581;29;20058;-76
2022/06/09 02:13:18;;;;;;;17.17;9.80;;;;;;;;;;4916928;29;20058;-76
2022/06/09 02:15:47;;;;;;;15.32;10.15;;;;;;;;;;4920289;29;20048;-76
2022/06/09 02:18:19;;;;;;;14.15;9.32;;;;;;;;;;4920476;29;20204;-76
2022/06/09 02:20:56;;;;;;;19.27;10.88;;;;;;;;;;4916733;29;20487;-76
2022/06/09 02:23:24;;;;;;;15.00;9.90;;;;;;;;;;4922435;29;20091;-76
2022/06/09 02:25:51;;;;;;;13.82;10.77;;;;;;;;;;4903656;29;20064;-76
2022/06/09 02:28:19;;;;;;;18.90;10.10;;;;;;;;;;4922304;29;20078;-77
2022/06/09 02:30:47;;;;;;;14.35;9.75;;;;;;;;;;4917926;29;20119;-76
2022/06/09 02:33:17;;;;;;;17.27;11.00;;;;;;;;;;4920798;29;20047;-76
2022/06/09 02:35:46;;;;;;;15.02;10.35;;;;;;;;;;4922392;29;20433;-76
2022/06/09 02:38:13;;;;;;;17.40;12.52;;;;;;;;;;4908582;29;20144;-76
2022/06/09 02:40:41;;;;;;;17.05;11.43;;;;;;;;;;4907829;29;20138;-76
2022/06/09 02:43:08;;;;;;;16.33;10.82;;;;;;;;;;4905208;29;20083;-76
2022/06/09 02:45:36;;;;;;;16.17;11.30;;;;;;;;;;4926256;29;20055;-77
2022/06/09 02:48:03;;;;;;;21.27;11.57;;;;;;;;;;4923414;29;20051;-77
2022/06/09 02:50:31;;;;;;;19.50;12.63;;;;;;;;;;4904410;29;20194;-77
2022/06/09 02:52:59;;;;;;;19.08;12.57;;;;;;;;;;4923578;29;20753;-77
2022/06/09 02:55:27;;;;;;;20.65;11.85;;;;;;;;;;4920923;29;20138;-76
2022/06/09 02:57:54;;;;;;;16.38;10.00;;;;;;;;;;4919189;29;20158;-76
2022/06/09 03:00:22;;;;;;;16.45;12.20;;;;;;;;;;4908051;29;20475;-77
2022/06/09 03:02:54;;;;;;;17.45;12.68;;;;;;;;;;4907076;29;20635;-77
2022/06/09 03:05:21;;;;;;;21.05;14.20;;;;;;;;;;4903662;29;20155;-76
2022/06/09 03:07:49;;;;;;;19.50;13.68;;;;;;;;;;4920928;29;20493;-76
2022/06/09 03:10:17;;;;;;;19.65;14.13;;;;;;;;;;4921897;29;20075;-76
2022/06/09 03:12:44;;;;;;;21.95;13.88;;;;;;;;;;4916566;29;20052;-76
2022/06/09 03:15:13;;;;;;;22.98;14.73;;;;;;;;;;4919661;29;20138;-76
2022/06/09 03:17:40;;;;;;;26.30;16.40;;;;;;;;;;4918024;29;20489;-76
2022/06/09 03:20:09;;;;;;;24.02;15.07;;;;;;;;;;4915170;29;22016;-76
2022/06/09 03:22:36;;;;;;;23.10;15.70;;;;;;;;;;4916502;29;20848;-76
2022/06/09 03:25:03;;;;;;;25.92;15.05;;;;;;;;;;4900993;29;20166;-76
2022/06/09 03:27:31;;;;;;;24.45;16.23;;;;;;;;;;4898080;29;20055;-76
2022/06/09 03:30:01;;;;;;;23.88;16.27;;;;;;;;;;4902004;29;20143;-76
2022/06/09 03:32:28;;;;;;;25.23;15.70;;;;;;;;;;4923093;29;20047;-76
2022/06/09 03:34:56;;;;;;;23.90;15.15;;;;;;;;;;4907572;29;20672;-76
2022/06/09 03:37:24;;;;;;;24.83;16.00;;;;;;;;;;4924346;29;20536;-76
2022/06/09 03:39:51;;;;;;;23.70;15.65;;;;;;;;;;4921628;29;20529;-75
2022/06/09 03:42:18;;;;;;;25.70;16.45;;;;;;;;;;4921300;29;20047;-76
2022/06/09 03:44:46;;;;;;;20.02;14.43;;;;;;;;;;4921497;29;20060;-76
2022/06/09 03:47:13;;;;;;;27.15;16.45;;;;;;;;;;4921582;29;20111;-76
2022/06/09 03:49:41;;;;;;;23.10;15.45;;;;;;;;;;4907418;29;20190;-76
2022/06/09 03:52:08;;;;;;;25.58;16.42;;;;;;;;;;4926895;29;20167;-76
2022/06/09 03:54:36;;;;;;;21.65;15.18;;;;;;;;;;4924924;29;20135;-76
2022/06/09 03:57:04;;;;;;;24.30;14.90;;;;;;;;;;4907893;29;20504;-76
2022/06/09 03:59:32;;;;;;;26.58;15.88;;;;;;;;;;4928261;29;20143;-76
2022/06/09 04:01:59;;;;;;;26.67;15.23;;;;;;;;;;4924959;29;20135;-75
2022/06/09 04:04:27;;;;;;;24.85;14.13;;;;;;;;;;4926524;29;20517;-77
2022/06/09 04:06:54;;;;;;;24.92;16.13;;;;;;;;;;4926529;29;20091;-76
2022/06/09 04:09:22;;;;;;;28.58;15.82;;;;;;;;;;4924831;29;20066;-76
2022/06/09 04:11:49;;;;;;;25.20;14.80;;;;;;;;;;4909888;29;20135;-75
2022/06/09 04:14:16;;;;;;;25.65;14.60;;;;;;;;;;4924978;29;20564;-75
2022/06/09 04:16:44;;;;;;;47.65;17.15;;;;;;;;;;4921882;29;20754;-76
2022/06/09 04:19:13;;;;;;;24.83;14.00;;;;;;;;;;4904529;29;20056;-76
2022/06/09 04:21:41;;;;;;;28.63;13.68;;;;;;;;;;4909730;29;20950;-76
2022/06/09 04:24:09;;;;;;;20.80;12.88;;;;;;;;;;4912452;29;20142;-76
2022/06/09 04:26:38;;;;;;;27.25;12.27;;;;;;;;;;4908261;29;20165;-76
2022/06/09 04:29:06;;;;;;;29.73;11.10;;;;;;;;;;4928243;29;20646;-78
2022/06/09 04:31:34;;;;;;;16.88;11.10;;;;;;;;;;4927131;29;20055;-74
2022/06/09 04:34:01;;;;;;;15.13;10.93;;;;;;;;;;4927284;29;20043;-77
2022/06/09 04:36:29;;;;;;;40.28;10.70;;;;;;;;;;4911544;29;20060;-76
2022/06/09 04:38:59;;;;;;;18.98;10.05;;;;;;;;;;4927184;29;20052;-76
2022/06/09 04:41:27;;;;;;;19.05;8.68;;;;;;;;;;4923993;29;20047;-75
2022/06/09 04:43:54;;;;;;;23.85;8.88;;;;;;;;;;4907109;29;20505;-76
2022/06/09 04:46:23;;;;;;;12.95;7.15;;;;;;;;;;4923415;29;20071;-75
2022/06/09 04:48:50;;;;;;;16.85;7.38;;;;;;;;;;4925616;29;20052;-73
2022/06/09 04:51:19;;;;;;;9.52;6.90;;;;;;;;;;4925164;29;20055;-78
2022/06/09 04:53:47;;;;;;;18.63;7.65;;;;;;;;;;4926984;29;20150;-73
2022/06/09 04:56:15;;;;;;;12.02;7.03;;;;;;;;;;4919654;29;20143;-74
2022/06/09 04:58:43;;;;;;;13.50;5.97;;;;;;;;;;4917088;29;20063;-75
2022/06/09 05:01:17;;;;;;;8.93;5.32;;;;;;;;;;4924191;29;20174;-72
2022/06/09 05:03:45;;;;;;;11.48;5.22;;;;;;;;;;4920594;29;20131;-71
2022/06/09 05:06:13;;;;;;;13.00;5.40;;;;;;;;;;4924121;29;20457;-75
2022/06/09 05:08:40;;;;;;;11.80;5.03;;;;;;;;;;4923001;29;20745;-73
2022/06/09 05:11:08;;;;;;;9.07;4.65;;;;;;;;;;4918906;29;20877;-73
2022/06/09 05:13:35;;;;;;;9.02;5.13;;;;;;;;;;4917707;29;20135;-74
2022/06/09 05:16:03;;;;;;;9.77;4.60;;;;;;;;;;4918424;29;20151;-73
2022/06/09 05:18:31;;;;;;;14.95;5.18;;;;;;;;;;4915885;29;20135;-73
2022/06/09 05:20:59;;;;;;;11.90;5.28;;;;;;;;;;4917980;29;20805;-73
2022/06/09 05:23:27;;;;;;;12.35;4.97;;;;;;;;;;4920786;29;20051;-73
2022/06/09 05:25:55;;;;;;;7.80;4.57;;;;;;;;;;4921807;29;20167;-74
2022/06/09 05:28:24;;;;;;;12.40;4.50;;;;;;;;;;4904761;29;20048;-74
2022/06/09 05:30:52;;;;;;;8.77;4.70;;;;;;;;;;4922383;29;20047;-82
2022/06/09 05:33:19;;;;;;;12.77;5.05;;;;;;;;;;4922067;29;20147;-75
2022/06/09 05:35:47;;;;;;;10.88;4.57;;;;;;;;;;4903607;29;20055;-76
2022/06/09 05:46:40;;;;;;;20.42;5.25;;;;;;;;;;4921000;29;21105;-76
2022/06/09 05:49:13;;;;;;;8.80;5.35;;;;;;;;;;4925655;29;20875;-76
2022/06/09 05:51:41;;;;;;;8.35;5.10;;;;;;;;;;4929546;29;20062;-76
2022/06/09 05:54:09;;;;;;;7.53;4.30;;;;;;;;;;4929035;29;20157;-76
2022/06/09 05:56:37;;;;;;;8.80;5.05;;;;;;;;;;4926088;29;20147;-76
2022/06/09 05:59:05;;;;;;;8.95;4.70;;;;;;;;;;4924314;29;20461;-76
2022/06/09 06:01:32;;;;;;;18.48;6.25;;;;;;;;;;4930139;29;20749;-76
2022/06/09 06:04:00;;;;;;;28.48;7.43;;;;;;;;;;4912317;29;20051;-76
2022/06/09 06:06:36;;;;;;;16.65;5.47;;;;;;;;;;4911874;29;20151;-76
2022/06/09 06:09:13;;;;;;;9.52;5.25;;;;;;;;;;4912823;29;20051;-76
2022/06/09 06:11:41;;;;;;;16.08;5.47;;;;;;;;;;4928737;29;20138;-76
2022/06/09 06:14:09;;;;;;;8.38;5.20;;;;;;;;;;4930688;29;20140;-76
2022/06/09 06:16:37;;;;;;;5.88;4.07;;;;;;;;;;4912961;29;20139;-76
2022/06/09 06:19:05;;;;;;;6.50;4.32;;;;;;;;;;4929974;29;20082;-76
2022/06/09 06:21:33;;;;;;;4.95;3.65;;;;;;;;;;4928901;29;20074;-76
2022/06/09 06:24:00;;;;;;;6.30;3.75;;;;;;;;;;4926265;29;20123;-76
2022/06/09 06:26:28;;;;;;;6.97;4.28;;;;;;;;;;4927983;29;20627;-76
2022/06/09 06:28:55;;;;;;;15.18;5.68;;;;;;;;;;4927645;29;20059;-76
2022/06/09 06:31:22;;;;;;;19.17;4.07;;;;;;;;;;4926201;29;20089;-76
2022/06/09 06:33:50;;;;;;;8.85;3.90;;;;;;;;;;4927524;29;20055;-76
2022/06/09 06:36:17;;;;;;;11.70;4.20;;;;;;;;;;4928185;29;20139;-76
2022/06/09 06:38:44;;;;;;;8.35;3.88;;;;;;;;;;4929533;29;20110;-76
2022/06/09 06:41:13;;;;;;;13.30;4.68;;;;;;;;;;4929309;29;20083;-76
2022/06/09 06:43:43;;;;;;;6.18;4.28;;;;;;;;;;4929833;29;20055;-76
2022/06/09 06:46:11;;;;;;;9.55;4.82;;;;;;;;;;4928655;29;20066;-76
2022/06/09 06:48:38;;;;;;;8.00;4.43;;;;;;;;;;4922202;29;20058;-76
2022/06/09 06:51:06;;;;;;;7.63;3.92;;;;;;;;;;4928812;29;20142;-76
2022/06/09 06:53:38;;;;;;;5.65;3.78;;;;;;;;;;4929466;29;20052;-76
2022/06/09 06:56:06;;;;;;;8.23;3.75;;;;;;;;;;4929336;29;20048;-75
2022/06/09 06:58:33;;;;;;;7.30;3.50;;;;;;;;;;4929843;29;20139;-75
2022/06/09 07:01:02;;;;;;;11.05;5.18;;;;;;;;;;4928719;29;20132;-76
2022/06/09 07:03:29;;;;;;;7.18;4.20;;;;;;;;;;4921461;29;20057;-76
2022/06/09 07:06:02;;;;;;;6.93;3.92;;;;;;;;;;4911715;29;20055;-76
2022/06/09 07:08:29;;;;;;;8.40;3.38;;;;;;;;;;4929060;29;20123;-75
2022/06/09 07:10:57;;;;;;;6.28;3.80;;;;;;;;;;4905055;29;20059;-76
2022/06/09 07:13:24;;;;;;;5.28;3.78;;;;;;;;;;4929085;29;20059;-75
2022/06/09 07:15:52;;;;;;;9.60;4.72;;;;;;;;;;4912257;29;20059;-75
2022/06/09 07:18:26;;;;;;;6.75;3.55;;;;;;;;;;4913227;29;20055;-75
2022/06/09 07:20:53;;;;;;;6.45;4.32;;;;;;;;;;4901873;29;20835;-75
2022/06/09 07:23:22;;;;;;;14.25;5.25;;;;;;;;;;4925187;29;20083;-77
2022/06/09 07:25:49;;;;;;;7.88;4.38;;;;;;;;;;4923788;29;20107;-75
2022/06/09 07:28:17;;;;;;;7.32;3.90;;;;;;;;;;4924987;29;20158;-76
2022/06/09 07:30:44;;;;;;;5.13;3.60;;;;;;;;;;4925148;29;20067;-76
2022/06/09 07:33:12;;;;;;;16.10;3.42;;;;;;;;;;4925098;29;20530;-76
2022/06/09 07:35:40;;;;;;;4.03;2.85;;;;;;;;;;4928171;29;20051;-77
2022/06/09 07:38:09;;;;;;;5.85;3.03;;;;;;;;;;4925073;29;20238;-77
2022/06/09 07:40:38;;;;;;;8.85;3.13;;;;;;;;;;4926055;29;20138;-76
2022/06/09 07:43:05;;;;;;;7.20;3.20;;;;;;;;;;4923612;29;20183;-76
2022/06/09 07:45:33;;;;;;;124.10;13.88;;;;;;;;;;4923406;29;20832;-75
2022/06/09 07:48:01;;;;;;;46.47;6.53;;;;;;;;;;4923068;29;21347;-75
2022/06/09 07:50:28;;;;;;;5.55;2.75;;;;;;;;;;4922476;29;20063;-76
2022/06/09 07:52:56;;;;;;;4.63;2.88;;;;;;;;;;4922809;29;20075;-76
2022/06/09 07:55:24;;;;;;;3.85;2.47;;;;;;;;;;4907435;29;20163;-75
2022/06/09 07:57:52;;;;;;;10.27;2.78;;;;;;;;;;4922940;29;20063;-76
2022/06/09 08:00:20;;;;;;;2.58;2.05;;;;;;;;;;4922320;29;20174;-76
2022/06/09 08:02:47;;;;;;;8.73;2.72;;;;;;;;;;4905629;29;20091;-75
2022/06/09 08:05:16;;;;;;;5.70;2.75;;;;;;;;;;4922787;29;20115;-76
2022/06/09 08:07:43;;;;;;;6.53;3.00;;;;;;;;;;4923038;29;20079;-75
2022/06/09 08:10:12;;;;;;;4.03;2.67;;;;;;;;;;4908846;29;20512;-74
2022/06/09 08:12:40;;;;;;;4.75;2.97;;;;;;;;;;4923879;29;20060;-74
2022/06/09 08:15:07;;;;;;;8.68;2.65;;;;;;;;;;4925466;29;20139;-74
2022/06/09 08:17:34;;;;;;;4.30;2.67;;;;;;;;;;4923742;29;20051;-74
2022/06/09 08:20:02;;;;;;;6.43;3.10;;;;;;;;;;4909835;29;20114;-75
2022/06/09 08:22:29;;;;;;;6.47;3.38;;;;;;;;;;4933573;29;20476;-74
2022/06/09 08:24:56;;;;;;;6.22;3.60;;;;;;;;;;4934805;29;20091;-74
2022/06/09 08:27:24;;;;;;;3.97;2.70;;;;;;;;;;4932767;29;20059;-74
2022/06/09 08:29:52;;;;;;;5.10;3.00;;;;;;;;;;4917850;29;20056;-75
2022/06/09 08:32:19;;;;;;;7.47;2.97;;;;;;;;;;4933712;29;20540;-75
2022/06/09 08:34:47;;;;;;;7.97;3.30;;;;;;;;;;4935480;29;20134;-75
2022/06/09 08:37:14;;;;;;;11.20;4.10;;;;;;;;;;4933549;29;20114;-75
2022/06/09 08:39:41;;;;;;;8.55;4.82;;;;;;;;;;4933689;29;20106;-75
2022/06/09 08:42:09;;;;;;;9.85;4.82;;;;;;;;;;4916857;29;20056;-75
2022/06/09 08:44:46;;;;;;;8.18;4.05;;;;;;;;;;4928051;29;20781;-75
2022/06/09 08:47:29;;;;;;;6.18;3.63;;;;;;;;;;4932980;29;20082;-75
2022/06/09 08:50:17;;;;;;;10.35;4.25;;;;;;;;;;4926204;29;20712;-75
2022/06/09 08:52:49;;;;;;;8.43;4.53;;;;;;;;;;4933527;29;20059;-75
2022/06/09 08:55:17;;;;;;;8.43;4.68;;;;;;;;;;4916316;29;20075;-75
2022/06/09 08:57:45;;;;;;;6.97;4.15;;;;;;;;;;4931893;29;20142;-75
2022/06/09 09:00:17;;;;;;;8.05;3.85;;;;;;;;;;4931485;29;20078;-75
2022/06/09 09:02:48;;;;;;;13.65;4.55;;;;;;;;;;4921271;29;20468;-75
2022/06/09 09:05:23;;;;;;;9.48;4.13;;;;;;;;;;4913831;29;20122;-75
2022/06/09 09:08:04;;;;;;;8.27;4.40;;;;;;;;;;4924472;29;20396;-75
2022/06/09 09:10:35;;;;;;;13.02;4.35;;;;;;;;;;4929846;29;20130;-75
2022/06/09 09:13:17;;;;;;;8.10;4.88;;;;;;;;;;4930579;29;20143;-75
2022/06/09 09:16:00;;;;;;;7.90;4.22;;;;;;;;;;4930443;29;20144;-75
2022/06/09 09:18:28;;;;;;;9.15;4.00;;;;;;;;;;4911471;29;20158;-76
2022/06/09 09:21:14;;;;;;;7.80;4.60;;;;;;;;;;4930071;29;20099;-76
2022/06/09 09:23:48;;;;;;;15.48;4.68;;;;;;;;;;4913586;29;20569;-76
2022/06/09 09:26:24;;;;;;;8.18;4.22;;;;;;;;;;4930561;29;20516;-76
2022/06/09 09:28:55;;;;;;;13.63;4.18;;;;;;;;;;4912941;29;20059;-76
2022/06/09 09:31:22;;;;;;;13.85;4.45;;;;;;;;;;4930159;29;20051;-76
2022/06/09 09:33:50;;;;;;;9.07;4.82;;;;;;;;;;4911068;29;20564;-75
2022/06/09 09:36:25;;;;;;;11.73;4.38;;;;;;;;;;4930269;29;20044;-75
2022/06/09 09:38:58;;;;;;;12.27;4.63;;;;;;;;;;4928128;29;20629;-75
2022/06/09 09:41:37;;;;;;;9.65;4.50;;;;;;;;;;4929215;29;20079;-76
2022/06/09 09:44:22;;;;;;;6.25;3.72;;;;;;;;;;4929546;29;20047;-75
2022/06/09 09:46:58;;;;;;;9.17;4.37;;;;;;;;;;4912323;29;20142;-76
2022/06/09 09:49:29;;;;;;;10.52;4.30;;;;;;;;;;4929616;29;20151;-75
2022/06/09 09:51:58;;;;;;;8.25;3.97;;;;;;;;;;4928772;29;20054;-75
2022/06/09 09:54:28;;;;;;;16.67;4.50;;;;;;;;;;4913054;29;20056;-75
2022/06/09 09:57:06;;;;;;;12.68;4.78;;;;;;;;;;4912734;29;20071;-75
2022/06/09 09:59:42;;;;;;;12.57;5.75;;;;;;;;;;4929271;29;20075;-75
2022/06/09 10:08:40;;;;;;;8.13;3.75;;;;;;;;;;4928065;29;20055;-76
2022/06/09 10:14:32;;;;;;;;;;;;;;;;;;4929890;29;20047;-75
2022/06/09 10:17:20;;;;;;;9.30;4.13;;;;;;;;;;4914014;29;20318;-75
2022/06/09 10:20:04;;;;;;;8.73;4.38;;;;;;;;;;4923171;29;20885;-75
2022/06/09 10:22:33;;;;;;;16.38;5.00;;;;;;;;;;4927133;29;20091;-75
2022/06/09 10:25:03;;;;;;;10.13;4.90;;;;;;;;;;4911366;29;20056;-75
2022/06/09 10:27:37;;;;;;;12.57;4.97;;;;;;;;;;4910238;29;20647;-75
2022/06/09 10:30:04;;;;;;;11.00;5.27;;;;;;;;;;4924857;29;20055;-75
2022/06/09 10:32:36;;;;;;;14.23;5.32;;;;;;;;;;4909654;29;20075;-75
2022/06/09 10:35:12;;;;;;;11.07;5.25;;;;;;;;;;4929114;29;20816;-75
2022/06/09 10:37:45;;;;;;;12.10;5.60;;;;;;;;;;4928511;29;20079;-76
2022/06/09 10:40:18;;;;;;;12.45;5.38;;;;;;;;;;4928678;29;20087;-76
2022/06/09 10:43:04;;;;;;;13.38;5.43;;;;;;;;;;4912920;29;20083;-75
2022/06/09 10:45:40;;;;;;;12.05;5.32;;;;;;;;;;4910482;29;20095;-75
2022/06/09 10:57:01;;;;;;;14.07;3.55;;;;;;;;;;4921921;29;20150;-76
2022/06/09 10:59:28;;;;;;;10.80;4.78;;;;;;;;;;4910213;29;20098;-76
2022/06/09 11:01:56;;;;;;;11.25;4.30;;;;;;;;;;4928886;29;20084;-75
2022/06/09 11:04:24;;;;;;;10.88;4.05;;;;;;;;;;4911851;29;20146;-76
2022/06/09 11:07:11;;;;;;;5.38;3.92;;;;;;;;;;4911569;29;20055;-75
2022/06/09 11:09:49;;;;;;;11.00;4.15;;;;;;;;;;4928348;29;20194;-75
2022/06/09 11:12:21;;;;;;;8.98;3.85;;;;;;;;;;4928772;29;20556;-75
2022/06/09 11:15:04;;;;;;;7.85;3.90;;;;;;;;;;4927826;29;20080;-76
2022/06/09 11:17:50;;;;;;;12.32;3.67;;;;;;;;;;4928904;29;20087;-76
2022/06/09 11:20:17;;;;;;;7.90;3.50;;;;;;;;;;4928859;29;20142;-76
2022/06/09 11:22:53;;;;;;;6.65;3.17;;;;;;;;;;4911766;29;20056;-76
2022/06/09 11:25:39;;;;;;;6.80;3.75;;;;;;;;;;4911124;29;20139;-76
2022/06/09 11:28:13;;;;;;;6.32;4.20;;;;;;;;;;4926958;29;20126;-75
2022/06/09 11:30:49;;;;;;;5.20;3.60;;;;;;;;;;4923777;29;20139;-75
2022/06/09 11:33:36;;;;;;;5.97;3.60;;;;;;;;;;4917584;29;20142;-75
2022/06/09 11:36:22;;;;;;;8.73;4.05;;;;;;;;;;4928875;29;20048;-75
2022/06/09 11:38:54;;;;;;;8.18;4.60;;;;;;;;;;4929016;29;20087;-75
2022/06/09 11:41:21;;;;;;;7.07;4.10;;;;;;;;;;4929010;29;20147;-76
2022/06/09 11:44:17;;;;;;;6.85;3.20;;;;;;;;;;4928742;29;20484;-76
2022/06/09 11:46:45;;;;;;;11.35;4.10;;;;;;;;;;4911262;29;20875;-75
2022/06/09 11:49:27;;;;;;;8.63;3.95;;;;;;;;;;4917834;29;20052;-76
2022/06/09 11:51:55;;;;;;;9.35;3.90;;;;;;;;;;4928379;29;20133;-75
2022/06/09 11:54:37;;;;;;;5.70;2.90;;;;;;;;;;4911705;29;20083;-76
2022/06/09 11:57:18;;;;;;;4.13;2.60;;;;;;;;;;4928340;29;20146;-75
2022/06/09 12:00:00;;;;;;;6.68;3.33;;;;;;;;;;4910512;29;20143;-76
2022/06/09 12:02:28;;;;;;;12.75;6.30;;;;;;;;;;4919366;29;20119;-76
2022/06/09 12:05:06;;;;;;;6.43;3.25;;;;;;;;;;4911093;29;20060;-76
2022/06/09 12:07:36;;;;;;;5.47;2.25;;;;;;;;;;4928922;29;20051;-76
2022/06/09 12:10:12;;;;;;;7.47;1.92;;;;;;;;;;4931797;29;20069;-76
2022/06/09 12:12:41;;;;;;;6.50;1.33;;;;;;;;;;4931711;29;20098;-76
2022/06/09 12:15:20;;;;;;;4.32;1.35;;;;;;;;;;4931400;29;20563;-76
2022/06/09 12:17:55;;;;;;;3.10;1.08;;;;;;;;;;4931278;29;20889;-76
2022/06/09 12:20:42;;;;;;;2.88;1.00;;;;;;;;;;4929312;29;20127;-76
2022/06/09 12:23:22;;;;;;;1.77;1.08;;;;;;;;;;4927575;29;20107;-76
2022/06/09 12:26:07;;;;;;;2.70;1.60;;;;;;;;;;4932306;29;20748;-75
2022/06/09 12:28:35;;;;;;;;;;;;;;;;;;4932394;29;20084;-76
2022/06/09 12:31:09;;;;;;;2.63;1.60;;;;;;;;;;4914243;29;19978;-75
2022/06/09 12:33:38;;;;;;;3.33;1.55;;;;;;;;;;4931283;29;20196;-76
2022/06/09 12:36:10;;;;;;;2.13;1.40;;;;;;;;;;4931958;29;20087;-75
2022/06/09 12:38:42;;;;;;;1.40;1.17;;;;;;;;;;4918145;29;20091;-76
2022/06/09 12:41:14;;;;;;;3.25;1.80;;;;;;;;;;4928021;29;20750;-76
2022/06/09 12:43:43;;;;;;;1.80;1.27;;;;;;;;;;4931183;29;20083;-75
2022/06/09 12:46:19;;;;;;;1.80;1.38;;;;;;;;;;4914226;29;20086;-76
2022/06/09 12:48:46;;;;;;;3.75;1.58;;;;;;;;;;4925278;29;20847;-76
2022/06/09 12:51:19;;;;;;;7.28;1.83;;;;;;;;;;4913418;29;20091;-75
2022/06/09 12:53:58;;;;;;;2.85;1.58;;;;;;;;;;4927632;29;20465;-76
2022/06/09 12:56:44;;;;;;;3.03;1.58;;;;;;;;;;4928143;29;20058;-76
2022/06/09 12:59:25;;;;;;;6.70;1.63;;;;;;;;;;4930205;29;20079;-76
2022/06/09 13:01:55;;;;;;;4.38;1.77;;;;;;;;;;4922312;29;20079;-76
2022/06/09 13:04:24;;;;;;;1.98;1.15;;;;;;;;;;4922134;29;20126;-76
2022/06/09 13:06:52;;;;;;;6.53;1.75;;;;;;;;;;4925613;29;21374;-77
2022/06/09 13:09:22;;;;;;;3.15;1.52;;;;;;;;;;4920395;29;20481;-77
2022/06/09 13:15:07;;;;;;;2.95;1.40;;;;;;;;;;4922883;29;20097;-76
2022/06/09 13:17:38;;;;;;;2.70;1.48;;;;;;;;;;4921425;29;20230;-77
2022/06/09 13:20:08;;;;;;;2.10;1.30;;;;;;;;;;4920526;29;20055;-76
2022/06/09 13:22:35;;;;;;;2.35;1.33;;;;;;;;;;4920579;29;20095;-76
2022/06/09 13:25:03;;;;;;;3.58;1.33;;;;;;;;;;4905120;29;20162;-76
2022/06/09 13:27:32;;;;;;;1.27;1.00;;;;;;;;;;4920620;29;20056;-76
2022/06/09 13:30:00;;;;;;;3.25;1.00;;;;;;;;;;4907850;29;20134;-76
2022/06/09 13:32:37;;;;;;;1.85;1.20;;;;;;;;;;4925603;29;20106;-75
2022/06/09 13:35:25;;;;;;;5.40;1.40;;;;;;;;;;4919859;29;20146;-76
2022/06/09 13:38:01;;;;;;;5.47;1.50;;;;;;;;;;4922985;29;20167;-75
2022/06/09 13:40:39;;;;;;;1.75;1.38;;;;;;;;;;4918543;29;20693;-75
2022/06/09 13:43:14;;;;;;;3.08;1.23;;;;;;;;;;4920064;29;20160;-75
2022/06/09 13:45:48;;;;;;;4.20;1.27;;;;;;;;;;4921037;29;20048;-75
2022/06/09 13:48:25;;;;;;;5.32;1.50;;;;;;;;;;4928994;29;20060;-75
2022/06/09 13:51:02;;;;;;;7.45;1.58;;;;;;;;;;4925132;29;20048;-75
2022/06/09 13:53:29;;;;;;;3.42;1.50;;;;;;;;;;4908914;29;20138;-75
2022/06/09 13:55:57;;;;;;;1.60;1.30;;;;;;;;;;4920352;29;20107;-75
2022/06/09 13:58:24;;;;;;;1.90;1.10;;;;;;;;;;4923655;29;20493;-76
2022/06/09 14:00:55;;;;;;;29.08;3.95;;;;;;;;;;4923717;29;20135;-76
2022/06/09 14:03:31;;;;;;;4.40;2.20;;;;;;;;;;4920311;29;20131;-76
2022/06/09 14:06:01;;;;;;;2.38;1.52;;;;;;;;;;4920513;29;20090;-75
2022/06/09 14:08:32;;;;;;;1.50;1.40;;;;;;;;;;4920505;29;20192;-76
2022/06/09 14:11:00;;;;;;;2.35;1.80;;;;;;;;;;4925657;29;20063;-75
2022/06/09 14:13:28;;;;;;;6.43;1.77;;;;;;;;;;4904432;29;20684;-75
2022/06/09 14:15:57;;;;;;;2.25;1.55;;;;;;;;;;4918526;29;21307;-74
2022/06/09 14:18:26;;;;;;;2.88;1.90;;;;;;;;;;4919093;29;20072;-76
2022/06/09 14:20:57;;;;;;;4.53;2.00;;;;;;;;;;4918738;29;20205;-75
2022/06/09 14:23:33;;;;;;;3.63;1.45;;;;;;;;;;4923693;29;20054;-74
2022/06/09 14:26:21;;;;;;;1.60;1.40;;;;;;;;;;4906044;29;20056;-73
2022/06/09 14:28:52;;;;;;;5.30;1.23;;;;;;;;;;4920532;29;20405;-74
2022/06/09 14:31:22;;;;;;;4.72;1.52;;;;;;;;;;4920154;29;20155;-74
2022/06/09 14:33:50;;;;;;;4.38;1.38;;;;;;;;;;4902560;29;20614;-74
2022/06/09 14:36:18;;;;;;;2.70;1.60;;;;;;;;;;4916780;29;20139;-74
2022/06/09 14:38:46;;;;;;;6.18;1.95;;;;;;;;;;4920634;29;20528;-74
2022/06/09 14:41:14;;;;;;;3.53;2.10;;;;;;;;;;4919516;29;20103;-73
2022/06/09 14:43:42;;;;;;;4.90;1.70;;;;;;;;;;4914564;29;20166;-73
2022/06/09 14:46:13;;;;;;;2.50;1.70;;;;;;;;;;4918837;29;20064;-72
2022/06/09 14:48:40;;;;;;;4.63;1.80;;;;;;;;;;4902882;29;20142;-73
2022/06/09 14:51:10;;;;;;;2.05;1.80;;;;;;;;;;4919248;29;20146;-74
2022/06/09 14:53:37;;;;;;;4.63;2.13;;;;;;;;;;4919901;29;20142;-74
2022/06/09 14:56:05;;;;;;;4.78;2.13;;;;;;;;;;4919867;29;20147;-74
2022/06/09 14:58:32;;;;;;;3.95;1.60;;;;;;;;;;4904656;29;20139;-75
2022/06/09 15:01:00;;;;;;;3.90;2.08;;;;;;;;;;4920563;29;20174;-76
2022/06/09 15:03:27;;;;;;;4.50;2.25;;;;;;;;;;4914182;29;20207;-77
2022/06/09 15:06:00;;;;;;;4.45;1.85;;;;;;;;;;4914406;29;20071;-75
2022/06/09 15:08:27;;;;;;;2.97;1.60;;;;;;;;;;4914352;29;20114;-73
2022/06/09 15:10:55;;;;;;;2.67;1.85;;;;;;;;;;4898948;29;20704;-75
2022/06/09 15:13:22;;;;;;;4.35;1.55;;;;;;;;;;4913852;29;20115;-75
2022/06/09 15:15:50;;;;;;;4.20;1.73;;;;;;;;;;4914849;29;20115;-74
2022/06/09 15:18:19;;;;;;;4.03;1.60;;;;;;;;;;4914548;29;20055;-74
2022/06/09 15:20:47;;;;;;;5.20;1.55;;;;;;;;;;4898485;29;20075;-74
2022/06/09 15:23:14;;;;;;;2.20;1.70;;;;;;;;;;4915281;29;20102;-74
2022/06/09 15:25:42;;;;;;;4.45;1.52;;;;;;;;;;4914236;29;20549;-74
2022/06/09 15:28:11;;;;;;;2.33;1.63;;;;;;;;;;4897580;29;20170;-74
2022/06/09 15:30:39;;;;;;;3.25;1.70;;;;;;;;;;4911314;29;20051;-75